sensor_id;sensor_type;location;lat;lon;timestamp;temperature;humidity
44537;DHT22;30245;51.966;6.292;2022-12-11T00:01:26;6.30;63.00
44537;DHT22;30245;51.966;6.292;2022-12-11T00:03:52;6.30;62.90
44537;DHT22;30245;51.966;6.292;2022-12-11T00:06:20;6.30;62.90
44537;DHT22;30245;51.966;6.292;2022-12-11T00:08:46;6.30;63.50
44537;DHT22;30245;51.966;6.292;2022-12-11T00:11:14;6.40;62.80
44537;DHT22;30245;51.966;6.292;2022-12-11T00:13:40;6.40;62.70
44537;DHT22;30245;51.966;6.292;2022-12-11T00:16:06;6.40;62.60
44537;DHT22;30245;51.966;6.292;2022-12-11T00:18:32;6.40;62.60
44537;DHT22;30245;51.966;6.292;2022-12-11T00:21:01;6.30;62.70
44537;DHT22;30245;51.966;6.292;2022-12-11T00:23:28;6.20;63.10
44537;DHT22;30245;51.966;6.292;2022-12-11T00:25:53;6.20;63.20
44537;DHT22;30245;51.966;6.292;2022-12-11T00:28:19;6.20;63.30
44537;DHT22;30245;51.966;6.292;2022-12-11T00:30:45;6.20;63.90
44537;DHT22;30245;51.966;6.292;2022-12-11T00:33:11;6.20;63.30
44537;DHT22;30245;51.966;6.292;2022-12-11T00:35:41;6.20;63.30
44537;DHT22;30245;51.966;6.292;2022-12-11T00:38:08;6.20;63.90
44537;DHT22;30245;51.966;6.292;2022-12-11T00:40:38;6.10;63.30
44537;DHT22;30245;51.966;6.292;2022-12-11T00:43:04;6.10;63.50
44537;DHT22;30245;51.966;6.292;2022-12-11T00:45:29;6.20;63.40
44537;DHT22;30245;51.966;6.292;2022-12-11T00:47:55;6.20;63.40
44537;DHT22;30245;51.966;6.292;2022-12-11T00:50:21;6.20;63.30
44537;DHT22;30245;51.966;6.292;2022-12-11T00:52:47;6.20;63.30
44537;DHT22;30245;51.966;6.292;2022-12-11T00:55:12;6.10;63.40
44537;DHT22;30245;51.966;6.292;2022-12-11T00:57:38;6.10;63.40
44537;DHT22;30245;51.966;6.292;2022-12-11T01:00:05;6.10;63.60
44537;DHT22;30245;51.966;6.292;2022-12-11T01:02:32;6.00;63.70
44537;DHT22;30245;51.966;6.292;2022-12-11T01:04:57;6.00;63.90
44537;DHT22;30245;51.966;6.292;2022-12-11T01:07:23;6.00;64.00
44537;DHT22;30245;51.966;6.292;2022-12-11T01:09:49;5.90;64.20
44537;DHT22;30245;51.966;6.292;2022-12-11T01:12:33;5.90;64.30
44537;DHT22;30245;51.966;6.292;2022-12-11T01:14:58;5.90;64.30
44537;DHT22;30245;51.966;6.292;2022-12-11T01:17:24;5.80;64.50
44537;DHT22;30245;51.966;6.292;2022-12-11T01:19:52;5.80;64.70
44537;DHT22;30245;51.966;6.292;2022-12-11T01:22:18;5.70;64.80
44537;DHT22;30245;51.966;6.292;2022-12-11T01:24:43;5.70;64.80
44537;DHT22;30245;51.966;6.292;2022-12-11T01:27:09;5.70;64.90
44537;DHT22;30245;51.966;6.292;2022-12-11T01:29:35;5.80;64.90
44537;DHT22;30245;51.966;6.292;2022-12-11T01:32:00;5.90;64.70
44537;DHT22;30245;51.966;6.292;2022-12-11T01:34:29;5.90;64.60
44537;DHT22;30245;51.966;6.292;2022-12-11T01:36:55;6.00;64.50
44537;DHT22;30245;51.966;6.292;2022-12-11T01:39:20;6.20;63.80
44537;DHT22;30245;51.966;6.292;2022-12-11T01:41:46;6.20;63.80
44537;DHT22;30245;51.966;6.292;2022-12-11T01:46:41;6.30;63.70
44537;DHT22;30245;51.966;6.292;2022-12-11T01:49:10;6.30;63.70
44537;DHT22;30245;51.966;6.292;2022-12-11T01:51:56;6.40;63.80
44537;DHT22;30245;51.966;6.292;2022-12-11T01:54:24;6.30;63.70
44537;DHT22;30245;51.966;6.292;2022-12-11T01:56:52;6.30;63.70
44537;DHT22;30245;51.966;6.292;2022-12-11T01:59:22;6.30;63.90
44537;DHT22;30245;51.966;6.292;2022-12-11T02:02:13;6.40;63.80
44537;DHT22;30245;51.966;6.292;2022-12-11T02:04:41;6.40;63.60
44537;DHT22;30245;51.966;6.292;2022-12-11T02:07:08;6.40;63.50
44537;DHT22;30245;51.966;6.292;2022-12-11T02:09:36;6.40;64.20
44537;DHT22;30245;51.966;6.292;2022-12-11T02:14:33;6.30;63.80
44537;DHT22;30245;51.966;6.292;2022-12-11T02:30:36;6.30;63.90
44537;DHT22;30245;51.966;6.292;2022-12-11T02:33:04;6.20;64.00
44537;DHT22;30245;51.966;6.292;2022-12-11T02:35:37;6.30;64.20
44537;DHT22;30245;51.966;6.292;2022-12-11T02:38:16;6.30;64.10
44537;DHT22;30245;51.966;6.292;2022-12-11T02:40:42;6.30;64.30
44537;DHT22;30245;51.966;6.292;2022-12-11T02:43:10;6.30;64.20
44537;DHT22;30245;51.966;6.292;2022-12-11T02:45:38;6.40;64.10
44537;DHT22;30245;51.966;6.292;2022-12-11T02:48:06;6.40;63.80
44537;DHT22;30245;51.966;6.292;2022-12-11T02:50:33;6.40;64.00
44537;DHT22;30245;51.966;6.292;2022-12-11T02:53:02;6.30;64.20
44537;DHT22;30245;51.966;6.292;2022-12-11T02:55:29;6.20;64.50
44537;DHT22;30245;51.966;6.292;2022-12-11T02:58:04;6.20;64.70
44537;DHT22;30245;51.966;6.292;2022-12-11T03:00:31;6.20;64.80
44537;DHT22;30245;51.966;6.292;2022-12-11T03:02:57;6.10;64.70
44537;DHT22;30245;51.966;6.292;2022-12-11T03:05:23;6.20;64.70
44537;DHT22;30245;51.966;6.292;2022-12-11T03:07:48;6.20;64.60
44537;DHT22;30245;51.966;6.292;2022-12-11T03:10:16;6.20;64.60
44537;DHT22;30245;51.966;6.292;2022-12-11T03:12:44;6.20;65.30
44537;DHT22;30245;51.966;6.292;2022-12-11T03:15:14;6.20;64.50
44537;DHT22;30245;51.966;6.292;2022-12-11T03:20:37;6.20;64.30
44537;DHT22;30245;51.966;6.292;2022-12-11T03:23:19;6.30;64.40
44537;DHT22;30245;51.966;6.292;2022-12-11T03:26:07;6.30;64.40
44537;DHT22;30245;51.966;6.292;2022-12-11T03:28:58;6.40;64.30
44537;DHT22;30245;51.966;6.292;2022-12-11T03:31:30;6.50;64.10
44537;DHT22;30245;51.966;6.292;2022-12-11T03:34:00;6.50;63.90
44537;DHT22;30245;51.966;6.292;2022-12-11T03:36:33;6.60;63.90
44537;DHT22;30245;51.966;6.292;2022-12-11T03:39:04;6.50;63.80
44537;DHT22;30245;51.966;6.292;2022-12-11T03:41:32;6.50;64.10
44537;DHT22;30245;51.966;6.292;2022-12-11T03:43:59;6.40;64.20
44537;DHT22;30245;51.966;6.292;2022-12-11T03:46:30;6.30;64.40
44537;DHT22;30245;51.966;6.292;2022-12-11T03:49:01;6.30;64.60
44537;DHT22;30245;51.966;6.292;2022-12-11T03:51:29;6.30;64.70
44537;DHT22;30245;51.966;6.292;2022-12-11T03:53:56;6.30;64.70
44537;DHT22;30245;51.966;6.292;2022-12-11T03:56:25;6.30;64.70
44537;DHT22;30245;51.966;6.292;2022-12-11T03:58:51;6.40;64.70
44537;DHT22;30245;51.966;6.292;2022-12-11T04:01:17;6.40;64.60
44537;DHT22;30245;51.966;6.292;2022-12-11T04:03:43;6.30;64.60
44537;DHT22;30245;51.966;6.292;2022-12-11T04:06:09;6.30;64.90
44537;DHT22;30245;51.966;6.292;2022-12-11T04:08:34;6.30;64.80
44537;DHT22;30245;51.966;6.292;2022-12-11T04:11:02;6.40;64.90
44537;DHT22;30245;51.966;6.292;2022-12-11T04:13:46;6.40;64.60
44537;DHT22;30245;51.966;6.292;2022-12-11T04:16:31;6.50;64.50
44537;DHT22;30245;51.966;6.292;2022-12-11T04:18:57;6.50;64.50
44537;DHT22;30245;51.966;6.292;2022-12-11T04:21:41;6.50;64.40
44537;DHT22;30245;51.966;6.292;2022-12-11T04:24:25;6.50;64.50
44537;DHT22;30245;51.966;6.292;2022-12-11T04:26:50;6.60;64.60
44537;DHT22;30245;51.966;6.292;2022-12-11T04:29:16;6.60;64.40
44537;DHT22;30245;51.966;6.292;2022-12-11T04:31:42;6.60;64.40
44537;DHT22;30245;51.966;6.292;2022-12-11T04:34:07;6.60;64.40
44537;DHT22;30245;51.966;6.292;2022-12-11T04:36:33;6.60;64.40
44537;DHT22;30245;51.966;6.292;2022-12-11T04:38:58;6.70;64.40
44537;DHT22;30245;51.966;6.292;2022-12-11T04:41:24;6.70;64.10
44537;DHT22;30245;51.966;6.292;2022-12-11T04:43:50;6.70;64.70
44537;DHT22;30245;51.966;6.292;2022-12-11T04:46:20;6.70;64.20
44537;DHT22;30245;51.966;6.292;2022-12-11T04:48:47;6.70;64.20
44537;DHT22;30245;51.966;6.292;2022-12-11T04:51:13;6.70;64.20
44537;DHT22;30245;51.966;6.292;2022-12-11T04:53:39;6.80;64.20
44537;DHT22;30245;51.966;6.292;2022-12-11T04:56:06;6.90;64.00
44537;DHT22;30245;51.966;6.292;2022-12-11T04:58:32;6.80;63.90
44537;DHT22;30245;51.966;6.292;2022-12-11T05:00:58;6.90;64.10
44537;DHT22;30245;51.966;6.292;2022-12-11T05:03:23;6.90;64.00
44537;DHT22;30245;51.966;6.292;2022-12-11T05:05:50;6.90;63.80
44537;DHT22;30245;51.966;6.292;2022-12-11T05:08:17;7.00;63.80
44537;DHT22;30245;51.966;6.292;2022-12-11T05:10:43;7.00;63.80
44537;DHT22;30245;51.966;6.292;2022-12-11T05:13:09;7.10;63.80
44537;DHT22;30245;51.966;6.292;2022-12-11T05:15:38;7.10;63.60
44537;DHT22;30245;51.966;6.292;2022-12-11T05:18:04;7.10;63.60
44537;DHT22;30245;51.966;6.292;2022-12-11T05:20:29;7.10;63.70
44537;DHT22;30245;51.966;6.292;2022-12-11T05:22:55;7.10;63.60
44537;DHT22;30245;51.966;6.292;2022-12-11T05:25:20;7.10;63.60
44537;DHT22;30245;51.966;6.292;2022-12-11T05:27:47;7.10;63.60
44537;DHT22;30245;51.966;6.292;2022-12-11T05:30:12;7.20;63.60
44537;DHT22;30245;51.966;6.292;2022-12-11T05:32:38;7.10;63.40
44537;DHT22;30245;51.966;6.292;2022-12-11T05:35:04;7.20;63.50
44537;DHT22;30245;51.966;6.292;2022-12-11T05:37:32;7.20;63.40
44537;DHT22;30245;51.966;6.292;2022-12-11T05:39:58;7.20;63.40
44537;DHT22;30245;51.966;6.292;2022-12-11T05:42:24;7.20;63.30
44537;DHT22;30245;51.966;6.292;2022-12-11T05:44:49;7.20;63.10
44537;DHT22;30245;51.966;6.292;2022-12-11T05:47:15;7.20;63.10
44537;DHT22;30245;51.966;6.292;2022-12-11T05:49:41;7.20;63.20
44537;DHT22;30245;51.966;6.292;2022-12-11T05:52:07;7.10;63.50
44537;DHT22;30245;51.966;6.292;2022-12-11T05:54:33;7.10;63.50
44537;DHT22;30245;51.966;6.292;2022-12-11T05:56:58;7.10;63.60
44537;DHT22;30245;51.966;6.292;2022-12-11T05:59:24;7.10;63.70
44537;DHT22;30245;51.966;6.292;2022-12-11T06:01:49;7.10;63.60
44537;DHT22;30245;51.966;6.292;2022-12-11T06:04:15;7.20;63.50
44537;DHT22;30245;51.966;6.292;2022-12-11T06:06:41;7.20;63.40
44537;DHT22;30245;51.966;6.292;2022-12-11T06:09:12;7.20;63.40
44537;DHT22;30245;51.966;6.292;2022-12-11T06:11:38;7.20;63.30
44537;DHT22;30245;51.966;6.292;2022-12-11T06:14:04;7.20;63.40
44537;DHT22;30245;51.966;6.292;2022-12-11T06:16:30;7.10;63.40
44537;DHT22;30245;51.966;6.292;2022-12-11T06:18:56;7.10;63.60
44537;DHT22;30245;51.966;6.292;2022-12-11T06:21:24;7.20;63.60
44537;DHT22;30245;51.966;6.292;2022-12-11T06:23:52;7.20;63.50
44537;DHT22;30245;51.966;6.292;2022-12-11T06:26:18;7.30;63.40
44537;DHT22;30245;51.966;6.292;2022-12-11T06:28:44;7.30;63.20
44537;DHT22;30245;51.966;6.292;2022-12-11T06:31:11;7.40;63.10
44537;DHT22;30245;51.966;6.292;2022-12-11T06:33:37;7.30;62.80
44537;DHT22;30245;51.966;6.292;2022-12-11T06:36:04;7.40;62.70
44537;DHT22;30245;51.966;6.292;2022-12-11T06:38:30;7.40;62.60
44537;DHT22;30245;51.966;6.292;2022-12-11T06:40:57;7.50;62.60
44537;DHT22;30245;51.966;6.292;2022-12-11T06:43:23;7.50;62.50
44537;DHT22;30245;51.966;6.292;2022-12-11T06:45:49;7.50;62.30
44537;DHT22;30245;51.966;6.292;2022-12-11T06:48:15;7.50;62.30
44537;DHT22;30245;51.966;6.292;2022-12-11T06:50:41;7.50;62.40
44537;DHT22;30245;51.966;6.292;2022-12-11T06:53:08;7.50;62.50
44537;DHT22;30245;51.966;6.292;2022-12-11T06:55:34;7.40;63.30
44537;DHT22;30245;51.966;6.292;2022-12-11T06:58:00;7.40;62.90
44537;DHT22;30245;51.966;6.292;2022-12-11T07:00:26;7.40;63.00
44537;DHT22;30245;51.966;6.292;2022-12-11T07:02:51;7.40;63.00
44537;DHT22;30245;51.966;6.292;2022-12-11T07:05:17;7.40;63.00
44537;DHT22;30245;51.966;6.292;2022-12-11T07:07:44;7.30;63.00
44537;DHT22;30245;51.966;6.292;2022-12-11T07:10:10;7.30;63.00
44537;DHT22;30245;51.966;6.292;2022-12-11T07:12:36;7.40;63.10
44537;DHT22;30245;51.966;6.292;2022-12-11T07:15:02;7.30;63.00
44537;DHT22;30245;51.966;6.292;2022-12-11T07:17:28;7.30;63.00
44537;DHT22;30245;51.966;6.292;2022-12-11T07:19:54;7.30;63.80
44537;DHT22;30245;51.966;6.292;2022-12-11T07:22:20;7.30;63.80
44537;DHT22;30245;51.966;6.292;2022-12-11T07:24:46;7.30;63.20
44537;DHT22;30245;51.966;6.292;2022-12-11T07:27:11;7.30;63.00
44537;DHT22;30245;51.966;6.292;2022-12-11T07:29:37;7.30;63.10
44537;DHT22;30245;51.966;6.292;2022-12-11T07:32:03;7.40;63.10
44537;DHT22;30245;51.966;6.292;2022-12-11T07:34:28;7.40;63.60
44537;DHT22;30245;51.966;6.292;2022-12-11T07:36:54;7.40;63.00
44537;DHT22;30245;51.966;6.292;2022-12-11T07:39:19;7.30;62.80
44537;DHT22;30245;51.966;6.292;2022-12-11T07:41:45;7.30;63.00
44537;DHT22;30245;51.966;6.292;2022-12-11T07:44:11;7.20;63.10
44537;DHT22;30245;51.966;6.292;2022-12-11T07:46:37;7.20;63.30
44537;DHT22;30245;51.966;6.292;2022-12-11T07:49:04;7.20;63.40
44537;DHT22;30245;51.966;6.292;2022-12-11T07:51:32;7.30;63.30
44537;DHT22;30245;51.966;6.292;2022-12-11T07:54:00;7.40;63.10
44537;DHT22;30245;51.966;6.292;2022-12-11T07:56:27;7.40;63.60
44537;DHT22;30245;51.966;6.292;2022-12-11T07:58:53;7.40;62.80
44537;DHT22;30245;51.966;6.292;2022-12-11T08:01:23;7.30;63.00
44537;DHT22;30245;51.966;6.292;2022-12-11T08:03:53;7.10;63.30
44537;DHT22;30245;51.966;6.292;2022-12-11T08:06:19;7.20;63.50
44537;DHT22;30245;51.966;6.292;2022-12-11T08:08:48;7.20;63.40
44537;DHT22;30245;51.966;6.292;2022-12-11T08:11:14;7.20;63.30
44537;DHT22;30245;51.966;6.292;2022-12-11T08:13:41;7.20;63.30
44537;DHT22;30245;51.966;6.292;2022-12-11T08:16:09;7.20;63.40
44537;DHT22;30245;51.966;6.292;2022-12-11T08:18:36;7.20;63.40
44537;DHT22;30245;51.966;6.292;2022-12-11T08:23:38;7.10;63.10
44537;DHT22;30245;51.966;6.292;2022-12-11T08:26:05;7.10;63.00
44537;DHT22;30245;51.966;6.292;2022-12-11T08:28:31;7.20;62.90
44537;DHT22;30245;51.966;6.292;2022-12-11T08:30:57;7.30;62.60
44537;DHT22;30245;51.966;6.292;2022-12-11T08:33:23;7.30;62.40
44537;DHT22;30245;51.966;6.292;2022-12-11T08:35:48;7.20;62.30
44537;DHT22;30245;51.966;6.292;2022-12-11T08:38:14;7.10;62.40
44537;DHT22;30245;51.966;6.292;2022-12-11T08:40:40;7.00;62.70
44537;DHT22;30245;51.966;6.292;2022-12-11T08:43:05;7.00;62.60
44537;DHT22;30245;51.966;6.292;2022-12-11T08:45:31;6.90;62.60
44537;DHT22;30245;51.966;6.292;2022-12-11T08:48:00;6.90;62.50
44537;DHT22;30245;51.966;6.292;2022-12-11T08:50:25;6.90;62.40
44537;DHT22;30245;51.966;6.292;2022-12-11T08:52:51;7.00;62.40
44537;DHT22;30245;51.966;6.292;2022-12-11T08:55:18;7.00;62.30
44537;DHT22;30245;51.966;6.292;2022-12-11T08:57:44;7.10;62.20
44537;DHT22;30245;51.966;6.292;2022-12-11T09:00:11;7.10;62.00
44537;DHT22;30245;51.966;6.292;2022-12-11T09:02:37;7.10;62.00
44537;DHT22;30245;51.966;6.292;2022-12-11T09:05:03;7.10;62.00
44537;DHT22;30245;51.966;6.292;2022-12-11T09:07:33;7.10;61.90
44537;DHT22;30245;51.966;6.292;2022-12-11T09:09:58;7.20;61.90
44537;DHT22;30245;51.966;6.292;2022-12-11T09:12:25;7.20;61.60
44537;DHT22;30245;51.966;6.292;2022-12-11T09:14:50;7.30;61.50
44537;DHT22;30245;51.966;6.292;2022-12-11T09:17:16;7.30;61.40
44537;DHT22;30245;51.966;6.292;2022-12-11T09:19:42;7.40;61.30
44537;DHT22;30245;51.966;6.292;2022-12-11T09:22:07;7.50;61.10
44537;DHT22;30245;51.966;6.292;2022-12-11T09:24:36;7.50;60.90
44537;DHT22;30245;51.966;6.292;2022-12-11T09:27:02;7.50;61.00
44537;DHT22;30245;51.966;6.292;2022-12-11T09:29:28;7.50;61.60
44537;DHT22;30245;51.966;6.292;2022-12-11T09:31:54;7.40;61.00
44537;DHT22;30245;51.966;6.292;2022-12-11T09:34:21;7.40;61.10
44537;DHT22;30245;51.966;6.292;2022-12-11T09:36:46;7.40;61.10
44537;DHT22;30245;51.966;6.292;2022-12-11T09:39:14;7.40;61.10
44537;DHT22;30245;51.966;6.292;2022-12-11T09:46:56;7.30;61.40
44537;DHT22;30245;51.966;6.292;2022-12-11T09:49:32;7.20;61.30
44537;DHT22;30245;51.966;6.292;2022-12-11T09:54:31;7.00;61.60
44537;DHT22;30245;51.966;6.292;2022-12-11T09:57:09;6.90;61.70
44537;DHT22;30245;51.966;6.292;2022-12-11T09:59:47;7.00;61.90
44537;DHT22;30245;51.966;6.292;2022-12-11T10:02:23;7.00;61.80
44537;DHT22;30245;51.966;6.292;2022-12-11T10:05:01;7.00;61.80
44537;DHT22;30245;51.966;6.292;2022-12-11T10:07:44;6.90;61.70
44537;DHT22;30245;51.966;6.292;2022-12-11T10:10:21;7.00;61.60
44537;DHT22;30245;51.966;6.292;2022-12-11T10:18:48;6.90;61.50
44537;DHT22;30245;51.966;6.292;2022-12-11T10:21:15;6.90;61.40
44537;DHT22;30245;51.966;6.292;2022-12-11T10:23:49;7.00;61.50
44537;DHT22;30245;51.966;6.292;2022-12-11T10:26:19;7.10;61.30
44537;DHT22;30245;51.966;6.292;2022-12-11T10:28:45;7.20;60.90
44537;DHT22;30245;51.966;6.292;2022-12-11T10:33:54;7.20;60.60
44537;DHT22;30245;51.966;6.292;2022-12-11T10:36:31;7.20;60.70
44537;DHT22;30245;51.966;6.292;2022-12-11T10:38:58;7.20;60.50
44537;DHT22;30245;51.966;6.292;2022-12-11T10:41:37;7.20;60.40
44537;DHT22;30245;51.966;6.292;2022-12-11T10:44:20;7.20;60.50
44537;DHT22;30245;51.966;6.292;2022-12-11T10:49:33;7.20;60.60
44537;DHT22;30245;51.966;6.292;2022-12-11T10:51:59;7.10;60.60
44537;DHT22;30245;51.966;6.292;2022-12-11T10:56:52;7.10;60.70
44537;DHT22;30245;51.966;6.292;2022-12-11T10:59:43;7.10;60.60
44537;DHT22;30245;51.966;6.292;2022-12-11T11:02:24;7.10;60.50
44537;DHT22;30245;51.966;6.292;2022-12-11T11:04:50;7.10;60.50
44537;DHT22;30245;51.966;6.292;2022-12-11T11:07:22;7.10;60.50
44537;DHT22;30245;51.966;6.292;2022-12-11T11:09:49;7.10;60.50
44537;DHT22;30245;51.966;6.292;2022-12-11T11:12:26;7.10;60.60
44537;DHT22;30245;51.966;6.292;2022-12-11T11:15:41;7.00;60.60
44537;DHT22;30245;51.966;6.292;2022-12-11T11:17:51;7.00;60.60
44537;DHT22;30245;51.966;6.292;2022-12-11T11:20:19;7.00;60.40
44537;DHT22;30245;51.966;6.292;2022-12-11T11:22:47;7.00;60.30
44537;DHT22;30245;51.966;6.292;2022-12-11T11:25:19;7.10;60.40
44537;DHT22;30245;51.966;6.292;2022-12-11T11:30:25;7.00;60.20
44537;DHT22;30245;51.966;6.292;2022-12-11T11:33:03;7.00;60.20
44537;DHT22;30245;51.966;6.292;2022-12-11T11:35:30;7.00;60.20
44537;DHT22;30245;51.966;6.292;2022-12-11T11:41:01;7.00;60.20
44537;DHT22;30245;51.966;6.292;2022-12-11T11:46:11;7.00;60.10
44537;DHT22;30245;51.966;6.292;2022-12-11T11:52:17;6.90;60.00
44537;DHT22;30245;51.966;6.292;2022-12-11T11:54:42;6.90;60.00
44537;DHT22;30245;51.966;6.292;2022-12-11T11:57:39;7.00;60.00
44537;DHT22;30245;51.966;6.292;2022-12-11T12:00:28;7.10;59.80
44537;DHT22;30245;51.966;6.292;2022-12-11T12:03:00;7.10;59.80
44537;DHT22;30245;51.966;6.292;2022-12-11T12:05:41;7.20;59.70
44537;DHT22;30245;51.966;6.292;2022-12-11T12:08:29;7.30;59.50
44537;DHT22;30245;51.966;6.292;2022-12-11T12:11:06;7.40;59.20
44537;DHT22;30245;51.966;6.292;2022-12-11T12:13:52;7.40;59.10
44537;DHT22;30245;51.966;6.292;2022-12-11T12:19:15;7.50;59.00
44537;DHT22;30245;51.966;6.292;2022-12-11T12:21:49;7.60;59.00
44537;DHT22;30245;51.966;6.292;2022-12-11T12:24:32;7.60;58.80
44537;DHT22;30245;51.966;6.292;2022-12-11T12:27:17;7.70;58.70
44537;DHT22;30245;51.966;6.292;2022-12-11T12:30:03;7.60;58.60
44537;DHT22;30245;51.966;6.292;2022-12-11T12:36:43;7.70;58.70
44537;DHT22;30245;51.966;6.292;2022-12-11T12:39:00;7.80;58.60
44537;DHT22;30245;51.966;6.292;2022-12-11T12:44:15;7.80;58.30
44537;DHT22;30245;51.966;6.292;2022-12-11T12:46:56;7.70;58.40
44537;DHT22;30245;51.966;6.292;2022-12-11T12:49:27;7.70;58.60
44537;DHT22;30245;51.966;6.292;2022-12-11T12:51:54;7.70;58.70
44537;DHT22;30245;51.966;6.292;2022-12-11T12:54:21;7.70;58.70
44537;DHT22;30245;51.966;6.292;2022-12-11T12:56:48;7.60;58.70
44537;DHT22;30245;51.966;6.292;2022-12-11T12:59:21;7.70;58.80
44537;DHT22;30245;51.966;6.292;2022-12-11T13:01:49;7.70;58.70
44537;DHT22;30245;51.966;6.292;2022-12-11T13:04:55;7.70;58.70
44537;DHT22;30245;51.966;6.292;2022-12-11T13:07:29;7.70;58.70
44537;DHT22;30245;51.966;6.292;2022-12-11T13:10:06;7.70;58.50
44537;DHT22;30245;51.966;6.292;2022-12-11T13:12:42;7.60;58.50
44537;DHT22;30245;51.966;6.292;2022-12-11T13:15:41;7.50;58.60
44537;DHT22;30245;51.966;6.292;2022-12-11T13:18:32;7.50;59.00
44537;DHT22;30245;51.966;6.292;2022-12-11T13:20:59;7.40;59.10
44537;DHT22;30245;51.966;6.292;2022-12-11T13:25:57;7.50;59.00
44537;DHT22;30245;51.966;6.292;2022-12-11T13:31:04;7.50;58.60
44537;DHT22;30245;51.966;6.292;2022-12-11T13:33:30;7.50;58.70
44537;DHT22;30245;51.966;6.292;2022-12-11T13:38:31;7.50;58.80
44537;DHT22;30245;51.966;6.292;2022-12-11T13:40:57;7.40;58.70
44537;DHT22;30245;51.966;6.292;2022-12-11T13:43:28;7.40;58.80
44537;DHT22;30245;51.966;6.292;2022-12-11T13:46:01;7.40;58.80
44537;DHT22;30245;51.966;6.292;2022-12-11T13:50:53;7.40;58.80
44537;DHT22;30245;51.966;6.292;2022-12-11T13:53:21;7.40;58.70
44537;DHT22;30245;51.966;6.292;2022-12-11T13:55:56;7.40;58.60
44537;DHT22;30245;51.966;6.292;2022-12-11T13:58:22;7.40;58.50
44537;DHT22;30245;51.966;6.292;2022-12-11T14:01:07;7.50;58.50
44537;DHT22;30245;51.966;6.292;2022-12-11T14:03:38;7.40;58.40
44537;DHT22;30245;51.966;6.292;2022-12-11T14:06:08;7.40;58.50
44537;DHT22;30245;51.966;6.292;2022-12-11T14:08:36;7.30;58.50
44537;DHT22;30245;51.966;6.292;2022-12-11T14:11:03;7.30;58.60
44537;DHT22;30245;51.966;6.292;2022-12-11T14:13:38;7.30;58.60
44537;DHT22;30245;51.966;6.292;2022-12-11T14:16:05;7.30;58.50
44537;DHT22;30245;51.966;6.292;2022-12-11T14:18:32;7.30;58.40
44537;DHT22;30245;51.966;6.292;2022-12-11T14:21:04;7.40;58.40
44537;DHT22;30245;51.966;6.292;2022-12-11T14:23:32;7.40;58.40
44537;DHT22;30245;51.966;6.292;2022-12-11T14:26:10;7.40;58.40
44537;DHT22;30245;51.966;6.292;2022-12-11T14:28:40;7.40;58.40
44537;DHT22;30245;51.966;6.292;2022-12-11T14:31:06;7.40;58.30
44537;DHT22;30245;51.966;6.292;2022-12-11T14:33:43;7.40;58.30
44537;DHT22;30245;51.966;6.292;2022-12-11T14:36:09;7.40;58.10
44537;DHT22;30245;51.966;6.292;2022-12-11T14:38:48;7.40;58.10
44537;DHT22;30245;51.966;6.292;2022-12-11T14:41:20;7.40;58.10
44537;DHT22;30245;51.966;6.292;2022-12-11T14:43:51;7.40;58.00
44537;DHT22;30245;51.966;6.292;2022-12-11T14:46:22;7.50;58.10
44537;DHT22;30245;51.966;6.292;2022-12-11T14:48:54;7.50;57.90
44537;DHT22;30245;51.966;6.292;2022-12-11T14:51:21;7.50;58.00
44537;DHT22;30245;51.966;6.292;2022-12-11T14:53:50;7.50;58.00
44537;DHT22;30245;51.966;6.292;2022-12-11T14:56:20;7.50;57.90
44537;DHT22;30245;51.966;6.292;2022-12-11T14:58:58;7.50;57.90
44537;DHT22;30245;51.966;6.292;2022-12-11T15:01:30;7.50;57.90
44537;DHT22;30245;51.966;6.292;2022-12-11T15:04:22;7.50;57.80
44537;DHT22;30245;51.966;6.292;2022-12-11T15:06:51;7.50;57.90
44537;DHT22;30245;51.966;6.292;2022-12-11T15:11:43;7.50;58.00
44537;DHT22;30245;51.966;6.292;2022-12-11T15:14:11;7.40;58.10
44537;DHT22;30245;51.966;6.292;2022-12-11T15:16:39;7.30;58.20
44537;DHT22;30245;51.966;6.292;2022-12-11T15:19:06;7.40;58.30
44537;DHT22;30245;51.966;6.292;2022-12-11T15:21:40;7.40;58.30
44537;DHT22;30245;51.966;6.292;2022-12-11T15:24:17;7.30;58.30
44537;DHT22;30245;51.966;6.292;2022-12-11T15:26:46;7.40;58.30
44537;DHT22;30245;51.966;6.292;2022-12-11T15:29:41;7.40;58.30
44537;DHT22;30245;51.966;6.292;2022-12-11T15:34:53;7.30;58.30
44537;DHT22;30245;51.966;6.292;2022-12-11T15:37:28;7.30;58.20
44537;DHT22;30245;51.966;6.292;2022-12-11T15:39:56;7.30;58.20
44537;DHT22;30245;51.966;6.292;2022-12-11T15:42:35;7.30;58.20
44537;DHT22;30245;51.966;6.292;2022-12-11T15:45:06;7.30;58.40
44537;DHT22;30245;51.966;6.292;2022-12-11T15:47:32;7.20;58.30
44537;DHT22;30245;51.966;6.292;2022-12-11T15:50:01;7.20;58.30
44537;DHT22;30245;51.966;6.292;2022-12-11T15:52:27;7.20;58.30
44537;DHT22;30245;51.966;6.292;2022-12-11T15:54:52;7.30;58.30
44537;DHT22;30245;51.966;6.292;2022-12-11T15:57:20;7.40;58.20
44537;DHT22;30245;51.966;6.292;2022-12-11T15:59:48;7.40;58.10
44537;DHT22;30245;51.966;6.292;2022-12-11T16:02:14;7.50;58.00
44537;DHT22;30245;51.966;6.292;2022-12-11T16:04:40;7.50;57.90
44537;DHT22;30245;51.966;6.292;2022-12-11T16:07:18;7.50;58.40
44537;DHT22;30245;51.966;6.292;2022-12-11T16:09:45;7.50;57.80
44537;DHT22;30245;51.966;6.292;2022-12-11T16:12:11;7.50;57.80
44537;DHT22;30245;51.966;6.292;2022-12-11T16:14:39;7.60;57.70
44537;DHT22;30245;51.966;6.292;2022-12-11T16:17:05;7.50;57.70
44537;DHT22;30245;51.966;6.292;2022-12-11T16:19:32;7.40;57.90
44537;DHT22;30245;51.966;6.292;2022-12-11T16:21:58;7.30;58.00
44537;DHT22;30245;51.966;6.292;2022-12-11T16:24:23;7.30;58.20
44537;DHT22;30245;51.966;6.292;2022-12-11T16:26:49;7.30;58.20
44537;DHT22;30245;51.966;6.292;2022-12-11T16:29:15;7.30;58.20
44537;DHT22;30245;51.966;6.292;2022-12-11T16:31:40;7.20;58.20
44537;DHT22;30245;51.966;6.292;2022-12-11T16:34:06;7.20;58.30
44537;DHT22;30245;51.966;6.292;2022-12-11T16:36:31;7.20;58.30
44537;DHT22;30245;51.966;6.292;2022-12-11T16:38:57;7.30;58.20
44537;DHT22;30245;51.966;6.292;2022-12-11T16:41:22;7.40;58.00
44537;DHT22;30245;51.966;6.292;2022-12-11T16:43:49;7.40;58.00
44537;DHT22;30245;51.966;6.292;2022-12-11T16:46:22;7.40;58.00
44537;DHT22;30245;51.966;6.292;2022-12-11T16:48:48;7.40;57.80
44537;DHT22;30245;51.966;6.292;2022-12-11T16:51:15;7.40;57.80
44537;DHT22;30245;51.966;6.292;2022-12-11T16:53:40;7.40;57.90
44537;DHT22;30245;51.966;6.292;2022-12-11T16:56:07;7.40;58.00
44537;DHT22;30245;51.966;6.292;2022-12-11T16:58:33;7.40;57.90
44537;DHT22;30245;51.966;6.292;2022-12-11T17:00:59;7.40;57.80
44537;DHT22;30245;51.966;6.292;2022-12-11T17:03:28;7.40;57.80
44537;DHT22;30245;51.966;6.292;2022-12-11T17:05:55;7.40;57.80
44537;DHT22;30245;51.966;6.292;2022-12-11T17:08:20;7.40;57.70
44537;DHT22;30245;51.966;6.292;2022-12-11T17:10:46;7.40;57.80
44537;DHT22;30245;51.966;6.292;2022-12-11T17:13:12;7.40;58.00
44537;DHT22;30245;51.966;6.292;2022-12-11T17:15:41;7.40;57.90
44537;DHT22;30245;51.966;6.292;2022-12-11T17:18:07;7.40;57.90
44537;DHT22;30245;51.966;6.292;2022-12-11T17:20:33;7.40;57.90